Time;durP1;ratioP1;P1;durP2;ratioP2;P2;SDS_P1;SDS_P2;PMS_P1;PMS_P2;Temp;Humidity;BMP_temperature;BMP_pressure;BME280_temperature;BME280_humidity;BME280_pressure;Samples;Min_cycle;Max_cycle;Signal;HPM_P1;HPM_P2
2024/01/18 00:01:08;;;;;;;;;;;0.20;99.90;;;;;;5096742;28;19931;-70
2024/01/18 00:03:36;;;;;;;;;;;0.00;99.90;;;;;;5097035;28;19928;-70
2024/01/18 00:06:01;;;;;;;;;;;0.30;99.90;;;;;;5096416;28;20287;-70
2024/01/18 00:08:27;;;;;;;;;;;-0.10;99.90;;;;;;5096976;28;19930;-70
2024/01/18 00:10:52;;;;;;;;;;;-0.20;99.90;;;;;;5097078;28;20413;-70
2024/01/18 00:13:18;;;;;;;;;;;-0.30;99.90;;;;;;5095729;28;20253;-70
2024/01/18 00:15:43;;;;;;;;;;;-0.40;99.90;;;;;;5097290;28;19930;-70
2024/01/18 00:18:10;;;;;;;;;;;-0.40;99.90;;;;;;5096805;28;19924;-71
2024/01/18 00:20:36;;;;;;;;;;;-0.40;99.90;;;;;;5095987;28;20014;-70
2024/01/18 00:23:01;;;;;;;;;;;-0.50;99.90;;;;;;5096395;28;20019;-70
2024/01/18 00:25:27;;;;;;;;;;;-0.60;99.90;;;;;;5077680;28;19924;-70
2024/01/18 00:27:55;;;;;;;;;;;-0.70;99.90;;;;;;5075632;28;19924;-70
2024/01/18 00:30:21;;;;;;;;;;;-0.80;99.90;;;;;;5094070;28;19924;-71
2024/01/18 00:32:46;;;;;;;;;;;-0.80;99.90;;;;;;5075372;28;19924;-70
2024/01/18 00:35:11;;;;;;;;;;;-0.90;99.90;;;;;;5075981;28;20333;-70
2024/01/18 00:37:37;;;;;;;;;;;-1.00;99.90;;;;;;5076598;28;19973;-70
2024/01/18 00:40:03;;;;;;;;;;;-1.00;99.90;;;;;;5075176;28;19935;-70
2024/01/18 00:42:28;;;;;;;;;;;-1.10;99.90;;;;;;5093955;28;19924;-70
2024/01/18 00:44:54;;;;;;;;;;;-1.10;99.90;;;;;;5076016;28;19924;-70
2024/01/18 00:47:19;;;;;;;;;;;-1.00;99.90;;;;;;5074986;28;19931;-70
2024/01/18 00:49:45;;;;;;;;;;;-1.20;99.90;;;;;;5075852;28;19969;-70
2024/01/18 00:52:10;;;;;;;;;;;-1.20;99.90;;;;;;5075679;28;20283;-70
2024/01/18 00:54:36;;;;;;;;;;;-1.30;99.90;;;;;;5094218;28;20019;-70
2024/01/18 00:57:01;;;;;;;;;;;-1.30;99.90;;;;;;5075415;28;20427;-70
2024/01/18 00:59:30;;;;;;;;;;;-1.30;99.90;;;;;;5075768;28;19928;-70
2024/01/18 01:01:55;;;;;;;;;;;-1.30;99.90;;;;;;5074772;28;19924;-70
2024/01/18 01:04:21;;;;;;;;;;;-1.30;99.90;;;;;;5075377;28;19924;-70
2024/01/18 01:06:46;;;;;;;;;;;-1.20;99.90;;;;;;5075678;28;19924;-70
2024/01/18 01:09:12;;;;;;;;;;;-1.20;99.90;;;;;;5080819;28;20286;-71
2024/01/18 01:11:37;;;;;;;;;;;-1.20;99.90;;;;;;5095816;28;19924;-70
2024/01/18 01:14:03;;;;;;;;;;;-1.10;99.90;;;;;;5095343;28;19977;-70
2024/01/18 01:16:28;;;;;;;;;;;-1.10;99.90;;;;;;5095302;28;20286;-70
2024/01/18 01:18:54;;;;;;;;;;;-1.10;99.90;;;;;;5090840;28;19924;-70
2024/01/18 01:21:19;;;;;;;;;;;-1.10;99.90;;;;;;5095530;28;19931;-70
2024/01/18 01:23:48;;;;;;;;;;;-1.10;99.90;;;;;;5094394;28;20019;-70
2024/01/18 01:26:15;;;;;;;;;;;-1.10;99.90;;;;;;5072813;28;19931;-70
2024/01/18 01:28:40;;;;;;;;;;;-1.20;99.90;;;;;;5088955;28;19931;-70
2024/01/18 01:31:06;;;;;;;;;;;-1.20;99.90;;;;;;5054318;28;20011;-70
2024/01/18 01:33:31;;;;;;;;;;;-1.20;99.90;;;;;;5076373;28;19968;-70
2024/01/18 01:36:00;;;;;;;;;;;-1.20;99.90;;;;;;5095375;28;19949;-70
2024/01/18 01:38:28;;;;;;;;;;;-1.20;99.90;;;;;;5095695;28;19985;-70
2024/01/18 01:40:54;;;;;;;;;;;-1.50;99.90;;;;;;5080383;28;19924;-70
2024/01/18 01:43:20;;;;;;;;;;;-1.20;99.90;;;;;;5074051;28;19933;-70
2024/01/18 01:45:45;;;;;;;;;;;-1.30;99.90;;;;;;5075031;28;20272;-70
2024/01/18 01:48:14;;;;;;;;;;;-1.40;99.90;;;;;;5092808;28;20261;-70
2024/01/18 01:50:40;;;;;;;;;;;-1.50;99.90;;;;;;5073509;28;20436;-70
2024/01/18 01:53:07;;;;;;;;;;;-1.40;99.90;;;;;;5074548;28;19924;-70
2024/01/18 01:55:33;;;;;;;;;;;-1.40;99.90;;;;;;5085835;28;19934;-70
2024/01/18 01:57:59;;;;;;;;;;;-1.40;99.90;;;;;;5094367;28;20006;-70
2024/01/18 02:00:28;;;;;;;;;;;-1.50;99.90;;;;;;5095165;28;19924;-70
2024/01/18 02:02:56;;;;;;;;;;;-1.50;99.90;;;;;;5095431;28;20363;-70
2024/01/18 02:05:22;;;;;;;;;;;-1.50;99.90;;;;;;5092520;28;19928;-70
2024/01/18 02:07:48;;;;;;;;;;;-1.50;99.90;;;;;;5095386;28;19930;-69
2024/01/18 02:10:13;;;;;;;;;;;-1.50;99.90;;;;;;5088548;28;19969;-70
2024/01/18 02:12:42;;;;;;;;;;;-1.30;99.90;;;;;;5074163;28;19924;-70
2024/01/18 02:15:08;;;;;;;;;;;-1.30;99.90;;;;;;5074660;28;19924;-70
2024/01/18 02:17:34;;;;;;;;;;;-1.30;99.90;;;;;;5074881;28;20012;-70
2024/01/18 02:20:00;;;;;;;;;;;-1.30;99.90;;;;;;5073509;28;20014;-70
2024/01/18 02:22:26;;;;;;;;;;;-1.30;99.90;;;;;;5074402;28;19920;-70
2024/01/18 02:24:57;;;;;;;;;;;-1.30;99.90;;;;;;5080154;28;19924;-70
2024/01/18 02:27:23;;;;;;;;;;;-1.40;99.90;;;;;;5093733;28;19927;-70
2024/01/18 02:29:48;;;;;;;;;;;-1.40;99.90;;;;;;5095079;28;20382;-70
2024/01/18 02:32:14;;;;;;;;;;;-1.50;99.90;;;;;;5112224;28;20394;-70
2024/01/18 02:34:40;;;;;;;;;;;-1.50;99.90;;;;;;5093047;28;19938;-70
2024/01/18 02:37:06;;;;;;;;;;;-1.60;99.90;;;;;;5094656;28;19924;-70
2024/01/18 02:39:31;;;;;;;;;;;-1.60;99.90;;;;;;5093596;28;19923;-70
2024/01/18 02:41:57;;;;;;;;;;;-1.60;99.90;;;;;;5094853;28;19924;-70
2024/01/18 02:44:24;;;;;;;;;;;-1.60;99.90;;;;;;5090761;28;19935;-70
2024/01/18 02:46:50;;;;;;;;;;;-1.70;99.90;;;;;;5090914;28;20394;-70
2024/01/18 02:49:15;;;;;;;;;;;-1.60;99.90;;;;;;5091381;28;19955;-70
2024/01/18 02:51:41;;;;;;;;;;;-1.50;99.90;;;;;;5091319;28;20011;-70
2024/01/18 02:54:06;;;;;;;;;;;-1.40;99.90;;;;;;5090320;28;19930;-70
2024/01/18 02:56:32;;;;;;;;;;;-1.30;99.90;;;;;;5090193;28;19920;-70
2024/01/18 02:58:57;;;;;;;;;;;-1.20;99.90;;;;;;5091450;28;20397;-70
2024/01/18 03:01:26;;;;;;;;;;;-1.30;99.90;;;;;;5090153;28;19934;-70
2024/01/18 03:03:51;;;;;;;;;;;-1.30;99.90;;;;;;5093430;28;19924;-70
2024/01/18 03:06:17;;;;;;;;;;;-1.30;99.90;;;;;;5128964;27;19970;-70
2024/01/18 03:08:42;;;;;;;;;;;-1.30;99.90;;;;;;5094132;28;20399;-70
2024/01/18 03:11:11;;;;;;;;;;;-1.40;99.90;;;;;;5094092;28;19975;-70
2024/01/18 03:13:36;;;;;;;;;;;-1.50;99.90;;;;;;5094715;28;19924;-70
2024/01/18 03:16:02;;;;;;;;;;;-1.50;99.90;;;;;;5093799;28;19920;-70
2024/01/18 03:18:28;;;;;;;;;;;-1.60;99.90;;;;;;5094296;28;19967;-70
2024/01/18 03:20:53;;;;;;;;;;;-1.60;99.90;;;;;;5094685;28;19967;-70
2024/01/18 03:23:22;;;;;;;;;;;-1.60;99.90;;;;;;5093892;28;19920;-71
2024/01/18 03:25:47;;;;;;;;;;;-1.50;99.90;;;;;;5094340;28;19924;-70
2024/01/18 03:28:13;;;;;;;;;;;-1.70;99.90;;;;;;5093826;28;20325;-70
2024/01/18 03:30:40;;;;;;;;;;;-1.80;99.90;;;;;;5093666;28;19925;-71
2024/01/18 03:33:05;;;;;;;;;;;-1.80;99.90;;;;;;5093959;28;19924;-70
2024/01/18 03:35:31;;;;;;;;;;;-1.90;99.90;;;;;;5092368;28;19924;-70
2024/01/18 03:37:56;;;;;;;;;;;-1.80;99.90;;;;;;5073527;28;20296;-70
2024/01/18 03:40:25;;;;;;;;;;;-1.80;99.90;;;;;;5073128;28;19925;-70
2024/01/18 03:42:50;;;;;;;;;;;-1.90;99.90;;;;;;5072577;28;19924;-70
2024/01/18 03:45:17;;;;;;;;;;;-2.00;99.90;;;;;;5091704;28;19924;-70
2024/01/18 03:47:42;;;;;;;;;;;-2.00;99.90;;;;;;5093812;28;19964;-70
2024/01/18 03:50:08;;;;;;;;;;;-1.80;99.90;;;;;;5092799;28;19979;-70
2024/01/18 03:52:34;;;;;;;;;;;-2.10;99.90;;;;;;5093638;28;19959;-70
2024/01/18 03:54:59;;;;;;;;;;;-2.10;99.90;;;;;;5093630;28;19959;-70
2024/01/18 03:57:25;;;;;;;;;;;-2.10;99.90;;;;;;5093213;28;20450;-70
2024/01/18 03:59:51;;;;;;;;;;;-2.20;99.90;;;;;;5078940;28;19924;-70
2024/01/18 04:02:16;;;;;;;;;;;-2.10;99.90;;;;;;5089047;28;19924;-70
2024/01/18 04:04:42;;;;;;;;;;;-2.10;99.90;;;;;;5074259;28;19931;-70
2024/01/18 04:07:15;;;;;;;;;;;-2.00;99.90;;;;;;5093556;28;19924;-69
2024/01/18 04:09:40;;;;;;;;;;;-1.10;99.90;;;;;;5093938;28;20014;-70
2024/01/18 04:12:06;;;;;;;;;;;-1.80;99.90;;;;;;5092050;28;20011;-71
2024/01/18 04:14:31;;;;;;;;;;;-1.60;99.90;;;;;;5089028;28;19924;-70
2024/01/18 04:16:57;;;;;;;;;;;-1.60;99.90;;;;;;5073990;28;20316;-69
2024/01/18 04:19:23;;;;;;;;;;;-1.50;99.90;;;;;;5072390;28;19974;-69
2024/01/18 04:21:48;;;;;;;;;;;-1.40;99.90;;;;;;5072876;28;19928;-68
2024/01/18 04:24:14;;;;;;;;;;;-1.40;99.90;;;;;;5072709;28;19924;-68
2024/01/18 04:26:39;;;;;;;;;;;-1.40;99.90;;;;;;5071948;28;19925;-69
2024/01/18 04:29:05;;;;;;;;;;;-0.20;99.90;;;;;;5072403;28;19927;-69
2024/01/18 04:31:30;;;;;;;;;;;-1.30;99.90;;;;;;5072910;28;19928;-69
2024/01/18 04:33:56;;;;;;;;;;;-1.00;99.90;;;;;;5073426;28;20310;-70
2024/01/18 04:36:30;;;;;;;;;;;-1.30;99.90;;;;;;5072890;28;19946;-70
2024/01/18 04:38:59;;;;;;;;;;;-1.30;99.90;;;;;;5072404;28;19956;-68
2024/01/18 04:41:25;;;;;;;;;;;-1.40;99.90;;;;;;5083869;28;19920;-68
2024/01/18 04:43:50;;;;;;;;;;;-1.40;99.90;;;;;;5092647;28;20395;-68
2024/01/18 04:46:16;;;;;;;;;;;-1.40;99.90;;;;;;5091853;28;19924;-68
2024/01/18 04:48:44;;;;;;;;;;;-1.50;99.90;;;;;;5091166;28;19973;-68
2024/01/18 04:51:09;;;;;;;;;;;-1.50;99.90;;;;;;5081470;28;19924;-68
2024/01/18 04:53:35;;;;;;;;;;;-1.40;99.90;;;;;;5071755;28;19925;-68
2024/01/18 04:56:00;;;;;;;;;;;-1.40;99.90;;;;;;5072043;28;19970;-68
2024/01/18 04:58:26;;;;;;;;;;;-1.40;99.90;;;;;;5072470;28;20033;-68
2024/01/18 05:00:52;;;;;;;;;;;-1.30;99.90;;;;;;5071848;28;20288;-68
2024/01/18 05:03:17;;;;;;;;;;;-1.30;99.90;;;;;;5085291;28;19924;-68
2024/01/18 05:05:43;;;;;;;;;;;-1.10;99.90;;;;;;5092121;28;20022;-69
2024/01/18 05:08:08;;;;;;;;;;;-0.80;99.90;;;;;;5125783;27;19924;-69
2024/01/18 05:10:34;;;;;;;;;;;-0.90;99.90;;;;;;5092755;28;19978;-69
2024/01/18 05:12:59;;;;;;;;;;;-0.80;99.90;;;;;;5091936;28;20418;-69
2024/01/18 05:15:25;;;;;;;;;;;-0.70;99.90;;;;;;5091755;28;19924;-69
2024/01/18 05:17:51;;;;;;;;;;;-0.60;99.90;;;;;;5091998;28;19982;-69
2024/01/18 05:20:17;;;;;;;;;;;-0.20;99.90;;;;;;5092149;28;19931;-69
2024/01/18 05:22:43;;;;;;;;;;;-0.40;99.90;;;;;;5091720;28;19928;-69
2024/01/18 05:25:08;;;;;;;;;;;-0.30;99.90;;;;;;5091705;28;20452;-69
2024/01/18 05:27:34;;;;;;;;;;;-0.20;99.90;;;;;;5090630;28;19928;-69
2024/01/18 05:29:59;;;;;;;;;;;-0.20;99.90;;;;;;5090237;28;19924;-69
2024/01/18 05:32:25;;;;;;;;;;;-0.10;99.90;;;;;;5092427;28;19963;-69
2024/01/18 05:34:51;;;;;;;;;;;0.30;99.90;;;;;;5088105;28;19947;-69
2024/01/18 05:37:17;;;;;;;;;;;0.00;99.90;;;;;;5069285;28;20007;-70
2024/01/18 05:39:43;;;;;;;;;;;0.00;99.90;;;;;;5088702;28;19930;-79
2024/01/18 05:42:09;;;;;;;;;;;0.80;99.90;;;;;;5092145;28;19924;-81
2024/01/18 05:44:34;;;;;;;;;;;0.50;99.90;;;;;;5094974;28;19924;-72
2024/01/18 05:47:02;;;;;;;;;;;0.00;99.90;;;;;;5094497;28;21360;-71
2024/01/18 05:49:27;;;;;;;;;;;0.00;99.90;;;;;;5111170;28;19928;-71
2024/01/18 05:51:53;;;;;;;;;;;-0.10;99.90;;;;;;5093364;28;20015;-71
2024/01/18 05:54:21;;;;;;;;;;;0.60;99.90;;;;;;5082912;28;20367;-71
2024/01/18 05:56:48;;;;;;;;;;;-0.20;99.90;;;;;;5094553;28;20371;-71
2024/01/18 05:59:14;;;;;;;;;;;-0.30;99.90;;;;;;5082228;28;19935;-68
2024/01/18 06:01:39;;;;;;;;;;;-0.40;99.90;;;;;;5075050;28;20284;-70
2024/01/18 06:04:06;;;;;;;;;;;-0.40;99.90;;;;;;5073668;28;20023;-69
2024/01/18 06:06:32;;;;;;;;;;;-0.50;99.90;;;;;;5075112;28;19931;-71
2024/01/18 06:08:57;;;;;;;;;;;-0.50;99.90;;;;;;5074652;28;19928;-68
2024/01/18 06:11:23;;;;;;;;;;;-0.60;99.90;;;;;;5086099;28;19927;-68
2024/01/18 06:13:48;;;;;;;;;;;-0.60;99.90;;;;;;5092252;28;20294;-69
2024/01/18 06:16:15;;;;;;;;;;;-0.70;99.90;;;;;;5082381;28;19924;-69
2024/01/18 06:18:42;;;;;;;;;;;-0.80;99.90;;;;;;5074371;28;20401;-75
2024/01/18 06:21:08;;;;;;;;;;;-0.80;99.90;;;;;;5086558;28;19927;-70
2024/01/18 06:23:33;;;;;;;;;;;-0.70;99.90;;;;;;5054599;28;19936;-71
2024/01/18 06:25:59;;;;;;;;;;;-1.00;99.90;;;;;;5066561;28;19994;-70
2024/01/18 06:28:24;;;;;;;;;;;-1.00;99.90;;;;;;5095140;28;19931;-70
2024/01/18 06:30:50;;;;;;;;;;;-1.10;99.90;;;;;;5094967;28;20008;-71
2024/01/18 06:33:15;;;;;;;;;;;-0.60;99.90;;;;;;5093653;28;19924;-70
2024/01/18 06:35:41;;;;;;;;;;;-1.20;99.90;;;;;;5094676;28;20113;-70
2024/01/18 06:38:06;;;;;;;;;;;-1.20;99.90;;;;;;5083598;28;20287;-70
2024/01/18 06:40:32;;;;;;;;;;;-1.30;99.90;;;;;;5077949;28;19924;-69
2024/01/18 06:42:58;;;;;;;;;;;-1.40;99.90;;;;;;5095096;28;19928;-70
2024/01/18 06:45:23;;;;;;;;;;;-0.50;99.90;;;;;;5078019;28;19935;-70
2024/01/18 06:47:48;;;;;;;;;;;-1.40;99.90;;;;;;5107747;28;20018;-70
2024/01/18 06:50:16;;;;;;;;;;;-1.50;99.90;;;;;;5100820;28;19924;-70
2024/01/18 06:52:44;;;;;;;;;;;-1.50;99.90;;;;;;5082373;28;19928;-69
2024/01/18 06:55:10;;;;;;;;;;;-1.50;99.90;;;;;;5077972;28;20367;-69
2024/01/18 06:57:35;;;;;;;;;;;-1.50;99.90;;;;;;5094893;28;20376;-69
2024/01/18 07:00:01;;;;;;;;;;;-1.60;99.90;;;;;;5076538;28;19924;-70
2024/01/18 07:02:26;;;;;;;;;;;-1.50;99.90;;;;;;5078950;28;20394;-69
2024/01/18 07:04:52;;;;;;;;;;;-1.60;99.90;;;;;;5094142;28;20010;-69
2024/01/18 07:07:17;;;;;;;;;;;-1.70;99.90;;;;;;5097068;28;19967;-69
2024/01/18 07:09:43;;;;;;;;;;;-1.70;99.90;;;;;;5098429;28;20481;-70
2024/01/18 07:12:09;;;;;;;;;;;-1.80;99.90;;;;;;5097836;28;19927;-70
2024/01/18 07:14:34;;;;;;;;;;;-1.90;99.90;;;;;;5115648;28;20304;-69
2024/01/18 07:17:00;;;;;;;;;;;-1.90;99.90;;;;;;5097904;28;20013;-70
2024/01/18 07:19:26;;;;;;;;;;;-1.90;99.90;;;;;;5096054;28;19931;-70
2024/01/18 07:21:53;;;;;;;;;;;-1.90;99.90;;;;;;5096586;28;20411;-69
2024/01/18 07:24:20;;;;;;;;;;;-1.80;99.90;;;;;;5097570;28;20251;-70
2024/01/18 07:26:46;;;;;;;;;;;-1.70;99.90;;;;;;5086665;28;19924;-70
2024/01/18 07:29:11;;;;;;;;;;;-1.60;99.90;;;;;;5076650;28;20283;-71
2024/01/18 07:31:37;;;;;;;;;;;-1.50;99.90;;;;;;5077103;28;20030;-70
2024/01/18 07:34:02;;;;;;;;;;;-1.30;99.90;;;;;;5076514;28;19974;-73
2024/01/18 07:36:28;;;;;;;;;;;-1.10;99.90;;;;;;5075578;28;19924;-71
2024/01/18 07:38:54;;;;;;;;;;;-0.90;99.90;;;;;;5076705;28;19943;-72
2024/01/18 07:41:20;;;;;;;;;;;-0.80;99.90;;;;;;5075955;28;19925;-72
2024/01/18 07:43:46;;;;;;;;;;;-0.70;99.90;;;;;;5071887;28;19960;-74
2024/01/18 07:46:11;;;;;;;;;;;-0.60;99.90;;;;;;5071853;28;19968;-69
2024/01/18 07:48:37;;;;;;;;;;;-0.60;99.90;;;;;;5071757;28;20269;-73
2024/01/18 07:51:02;;;;;;;;;;;-0.50;99.90;;;;;;5070756;28;19924;-71
2024/01/18 07:53:28;;;;;;;;;;;-0.30;99.90;;;;;;5071516;28;19979;-70
2024/01/18 07:55:53;;;;;;;;;;;0.30;99.90;;;;;;5113647;27;20431;-70
2024/01/18 07:58:19;;;;;;;;;;;0.10;99.90;;;;;;5109734;27;19928;-70
2024/01/18 08:00:44;;;;;;;;;;;0.20;99.90;;;;;;5074312;28;19978;-70
2024/01/18 08:03:10;;;;;;;;;;;0.30;99.90;;;;;;5071785;28;20283;-70
2024/01/18 08:05:36;;;;;;;;;;;0.30;99.90;;;;;;5074546;28;19932;-70
2024/01/18 08:08:01;;;;;;;;;;;0.40;99.90;;;;;;5071091;28;19924;-70
2024/01/18 08:10:27;;;;;;;;;;;0.40;99.90;;;;;;5070775;28;20405;-69
2024/01/18 08:12:53;;;;;;;;;;;0.40;99.90;;;;;;5081007;28;19924;-70
2024/01/18 08:15:19;;;;;;;;;;;0.40;99.90;;;;;;5091014;28;20007;-70
2024/01/18 08:17:44;;;;;;;;;;;0.40;99.90;;;;;;5090562;28;20023;-70
2024/01/18 08:20:13;;;;;;;;;;;0.50;99.90;;;;;;5091425;28;20307;-69
2024/01/18 08:22:42;;;;;;;;;;;0.50;99.90;;;;;;5090204;28;19972;-70
2024/01/18 08:25:08;;;;;;;;;;;0.60;99.90;;;;;;5093630;28;19931;-70
2024/01/18 08:27:34;;;;;;;;;;;0.70;99.90;;;;;;5093207;28;20023;-69
2024/01/18 08:29:59;;;;;;;;;;;0.80;99.90;;;;;;5092822;28;19924;-70
2024/01/18 08:32:31;;;;;;;;;;;0.90;99.90;;;;;;5092245;28;19930;-70
2024/01/18 08:34:57;;;;;;;;;;;1.00;99.90;;;;;;5093127;28;19924;-69
2024/01/18 08:37:23;;;;;;;;;;;1.00;99.90;;;;;;5083572;28;20282;-69
2024/01/18 08:39:48;;;;;;;;;;;1.00;99.90;;;;;;5072117;28;19978;-69
2024/01/18 08:42:14;;;;;;;;;;;1.00;99.90;;;;;;5074113;28;19972;-68
2024/01/18 08:44:45;;;;;;;;;;;1.00;99.90;;;;;;5076090;28;19924;-70
2024/01/18 08:47:14;;;;;;;;;;;1.00;99.90;;;;;;5075349;28;20303;-67
2024/01/18 08:49:40;;;;;;;;;;;1.00;99.90;;;;;;5075859;28;20014;-74
2024/01/18 08:52:05;;;;;;;;;;;0.90;99.90;;;;;;5079511;28;20327;-72
2024/01/18 08:54:31;;;;;;;;;;;0.90;99.90;;;;;;5096282;28;20351;-72
2024/01/18 08:56:57;;;;;;;;;;;0.90;99.90;;;;;;5096413;28;20018;-71
2024/01/18 08:59:23;;;;;;;;;;;0.80;99.90;;;;;;5094981;28;19970;-72
2024/01/18 09:01:49;;;;;;;;;;;0.80;99.90;;;;;;5091997;28;20014;-69
2024/01/18 09:04:32;;;;;;;;;;;0.80;99.90;;;;;;5076537;28;19928;-70
2024/01/18 09:06:57;;;;;;;;;;;0.80;99.90;;;;;;5085611;28;19973;-69
2024/01/18 09:09:23;;;;;;;;;;;0.90;99.90;;;;;;5095796;28;19927;-68
2024/01/18 09:11:48;;;;;;;;;;;0.90;99.90;;;;;;5085760;28;19963;-67
2024/01/18 09:14:14;;;;;;;;;;;2.60;99.90;;;;;;5105083;28;19972;-69
2024/01/18 09:16:39;;;;;;;;;;;1.10;99.90;;;;;;5073250;28;20010;-69
2024/01/18 09:19:05;;;;;;;;;;;1.60;99.90;;;;;;5110078;28;20348;-70
2024/01/18 09:21:30;;;;;;;;;;;2.90;99.90;;;;;;5074234;28;19928;-70
2024/01/18 09:23:56;;;;;;;;;;;4.20;99.90;;;;;;5073457;28;19947;-69
2024/01/18 09:26:22;;;;;;;;;;;4.70;99.90;;;;;;5081491;28;19959;-69
2024/01/18 09:28:47;;;;;;;;;;;5.20;99.90;;;;;;5093697;28;20402;-69
2024/01/18 09:31:15;;;;;;;;;;;5.40;99.90;;;;;;5093073;28;19955;-69
2024/01/18 09:33:41;;;;;;;;;;;6.30;99.90;;;;;;5091194;28;19924;-70
2024/01/18 09:36:06;;;;;;;;;;;7.30;99.90;;;;;;5092461;28;20015;-70
2024/01/18 09:38:33;;;;;;;;;;;8.50;99.90;;;;;;5093614;28;20373;-69
2024/01/18 09:41:05;;;;;;;;;;;8.90;99.90;;;;;;5087354;28;19981;-74
2024/01/18 09:43:38;;;;;;;;;;;9.30;99.90;;;;;;5069285;28;20372;-69
2024/01/18 09:46:07;;;;;;;;;;;10.30;99.90;;;;;;5071394;28;19924;-69
2024/01/18 09:48:36;;;;;;;;;;;11.30;99.90;;;;;;5071971;28;20330;-69
2024/01/18 09:51:03;;;;;;;;;;;11.50;99.90;;;;;;5059047;28;19925;-67
2024/01/18 09:53:32;;;;;;;;;;;10.90;99.90;;;;;;5064561;28;19950;-67
2024/01/18 09:55:59;;;;;;;;;;;9.90;99.90;;;;;;5072871;28;19934;-68
2024/01/18 09:58:25;;;;;;;;;;;8.60;99.90;;;;;;5071852;28;19931;-67
2024/01/18 10:00:55;;;;;;;;;;;7.80;99.90;;;;;;5070968;28;19924;-68
2024/01/18 10:03:21;;;;;;;;;;;7.20;99.90;;;;;;5069605;28;20020;-67
2024/01/18 10:05:46;;;;;;;;;;;6.40;99.90;;;;;;5073791;28;20326;-67
2024/01/18 10:08:12;;;;;;;;;;;5.90;99.90;;;;;;5075866;28;19924;-68
2024/01/18 10:10:38;;;;;;;;;;;5.60;99.90;;;;;;5074358;28;19928;-68
2024/01/18 10:13:03;;;;;;;;;;;5.40;99.90;;;;;;5075714;28;19993;-68
2024/01/18 10:15:33;;;;;;;;;;;5.30;99.90;;;;;;5075272;28;20410;-69
2024/01/18 10:17:59;;;;;;;;;;;5.40;99.90;;;;;;5086668;28;19934;-70
2024/01/18 10:20:26;;;;;;;;;;;6.50;99.90;;;;;;5095361;28;19924;-69
2024/01/18 10:22:53;;;;;;;;;;;7.80;99.90;;;;;;5095541;28;19968;-70
2024/01/18 10:25:21;;;;;;;;;;;8.80;99.90;;;;;;5093580;28;19928;-71
2024/01/18 10:27:50;;;;;;;;;;;10.20;99.90;;;;;;5091160;28;19925;-73
2024/01/18 10:30:16;;;;;;;;;;;11.60;99.90;;;;;;5075153;28;19925;-72
2024/01/18 10:32:45;;;;;;;;;;;12.90;99.90;;;;;;5074631;28;19925;-72
2024/01/18 10:35:26;;;;;;;;;;;13.90;98.50;;;;;;5075303;28;19924;-72
2024/01/18 10:38:15;;;;;;;;;;;14.70;97.20;;;;;;5074693;28;19925;-72
2024/01/18 10:40:48;;;;;;;;;;;15.60;96.00;;;;;;5070118;28;19924;-72
2024/01/18 10:43:14;;;;;;;;;;;15.20;93.60;;;;;;5094441;28;19935;-72
2024/01/18 10:45:40;;;;;;;;;;;13.80;95.60;;;;;;5083882;28;19924;-71
2024/01/18 10:48:06;;;;;;;;;;;12.70;95.30;;;;;;5074655;28;20311;-71
2024/01/18 10:50:33;;;;;;;;;;;11.10;96.10;;;;;;5075372;28;19975;-71
2024/01/18 10:53:02;;;;;;;;;;;9.50;99.20;;;;;;5073615;28;20371;-71
2024/01/18 10:55:28;;;;;;;;;;;8.40;99.90;;;;;;5075420;28;19925;-71
2024/01/18 10:57:53;;;;;;;;;;;7.60;99.90;;;;;;5094010;28;19961;-71
2024/01/18 11:00:19;;;;;;;;;;;6.90;99.90;;;;;;5094054;28;19986;-71
2024/01/18 11:02:45;;;;;;;;;;;6.80;99.90;;;;;;5078068;28;19924;-71
2024/01/18 11:05:17;;;;;;;;;;;6.10;99.90;;;;;;5074232;28;19925;-71
2024/01/18 11:07:42;;;;;;;;;;;6.20;99.90;;;;;;5075364;28;20011;-72
2024/01/18 11:10:12;;;;;;;;;;;8.10;99.90;;;;;;5074537;28;19964;-72
2024/01/18 11:12:41;;;;;;;;;;;7.90;99.90;;;;;;5074421;28;19978;-72
2024/01/18 11:15:11;;;;;;;;;;;7.90;99.90;;;;;;5073591;28;19964;-73
2024/01/18 11:17:43;;;;;;;;;;;8.90;99.90;;;;;;5074150;28;19982;-72
2024/01/18 11:20:09;;;;;;;;;;;10.60;99.90;;;;;;5073223;28;19979;-73
2024/01/18 11:22:35;;;;;;;;;;;12.10;99.90;;;;;;5075335;28;20010;-72
2024/01/18 11:25:04;;;;;;;;;;;13.00;98.40;;;;;;5072760;28;19962;-72
2024/01/18 11:27:34;;;;;;;;;;;13.70;96.30;;;;;;5074570;28;20326;-72
2024/01/18 11:30:00;;;;;;;;;;;14.30;94.90;;;;;;5074112;28;20351;-72
2024/01/18 11:32:25;;;;;;;;;;;15.00;94.30;;;;;;5074065;28;19975;-73
2024/01/18 11:34:54;;;;;;;;;;;15.40;93.70;;;;;;5073733;28;19967;-72
2024/01/18 11:37:24;;;;;;;;;;;15.80;93.20;;;;;;5088524;28;19973;-72
2024/01/18 11:39:50;;;;;;;;;;;16.10;91.60;;;;;;5093436;28;20493;-70
2024/01/18 11:42:16;;;;;;;;;;;16.40;92.20;;;;;;5093766;28;20371;-69
2024/01/18 11:44:54;;;;;;;;;;;16.70;91.00;;;;;;5097673;28;19935;-70
2024/01/18 11:47:21;;;;;;;;;;;16.80;91.10;;;;;;5097374;28;19924;-69
2024/01/18 11:49:46;;;;;;;;;;;17.10;87.70;;;;;;5096704;28;19920;-69
2024/01/18 11:52:13;;;;;;;;;;;17.40;87.90;;;;;;5097420;28;20251;-69
2024/01/18 11:54:40;;;;;;;;;;;17.30;86.30;;;;;;5097405;28;19927;-69
2024/01/18 11:57:12;;;;;;;;;;;16.90;85.20;;;;;;5096038;28;20370;-70
2024/01/18 11:59:41;;;;;;;;;;;16.80;84.20;;;;;;5095242;28;20347;-68
2024/01/18 12:02:13;;;;;;;;;;;17.40;84.90;;;;;;5096130;28;19927;-70
2024/01/18 12:04:41;;;;;;;;;;;16.70;87.00;;;;;;5097128;28;19924;-70
2024/01/18 12:07:07;;;;;;;;;;;17.20;83.90;;;;;;5076900;28;20436;-70
2024/01/18 12:09:36;;;;;;;;;;;17.30;81.80;;;;;;5075750;28;20379;-69
2024/01/18 12:12:03;;;;;;;;;;;17.50;82.10;;;;;;5076325;28;19924;-70
2024/01/18 12:14:29;;;;;;;;;;;17.10;81.40;;;;;;5076863;28;20001;-71
2024/01/18 12:16:54;;;;;;;;;;;16.90;79.80;;;;;;5093920;28;19993;-70
2024/01/18 12:19:29;;;;;;;;;;;17.50;80.20;;;;;;5096491;28;19942;-69
2024/01/18 12:21:55;;;;;;;;;;;17.20;80.60;;;;;;5096674;28;19924;-70
2024/01/18 12:24:21;;;;;;;;;;;17.40;82.30;;;;;;5095571;28;19930;-69
2024/01/18 12:26:47;;;;;;;;;;;17.10;79.40;;;;;;5077140;28;20291;-69
2024/01/18 12:29:12;;;;;;;;;;;17.00;79.20;;;;;;5076447;28;19930;-68
2024/01/18 12:31:38;;;;;;;;;;;16.80;79.80;;;;;;5075873;28;19924;-68
2024/01/18 12:34:03;;;;;;;;;;;17.20;78.70;;;;;;5099084;28;19928;-69
2024/01/18 12:36:29;;;;;;;;;;;17.00;79.10;;;;;;5083275;28;19924;-70
2024/01/18 12:38:54;;;;;;;;;;;16.70;77.60;;;;;;5079333;28;19928;-70
2024/01/18 12:41:22;;;;;;;;;;;17.00;77.70;;;;;;5075535;28;19928;-70
2024/01/18 12:43:47;;;;;;;;;;;16.60;80.70;;;;;;5075860;28;20367;-69
2024/01/18 12:46:15;;;;;;;;;;;16.40;79.80;;;;;;5074676;28;19924;-70
2024/01/18 12:48:41;;;;;;;;;;;16.40;80.10;;;;;;5076386;28;19924;-70
2024/01/18 12:51:07;;;;;;;;;;;16.40;79.40;;;;;;5093035;28;19939;-70
2024/01/18 12:53:33;;;;;;;;;;;16.00;80.70;;;;;;5074521;28;19942;-69
2024/01/18 12:56:04;;;;;;;;;;;15.90;81.20;;;;;;5075979;28;20023;-70
2024/01/18 12:58:29;;;;;;;;;;;16.30;80.50;;;;;;5075267;28;19925;-69
2024/01/18 13:00:54;;;;;;;;;;;15.60;80.20;;;;;;5093345;28;19931;-69
2024/01/18 13:03:21;;;;;;;;;;;15.20;79.60;;;;;;5075105;28;20364;-69
2024/01/18 13:05:47;;;;;;;;;;;15.20;81.20;;;;;;5074678;28;20394;-69
2024/01/18 13:08:13;;;;;;;;;;;15.50;81.10;;;;;;5104788;28;19989;-70
2024/01/18 13:10:39;;;;;;;;;;;15.40;80.40;;;;;;5075180;28;19924;-69
2024/01/18 13:13:08;;;;;;;;;;;14.80;81.90;;;;;;5074455;28;19953;-69
2024/01/18 13:15:34;;;;;;;;;;;14.90;82.30;;;;;;5093139;28;19924;-69
2024/01/18 13:18:06;;;;;;;;;;;15.10;81.80;;;;;;5075084;28;20280;-69
2024/01/18 13:20:32;;;;;;;;;;;14.80;83.50;;;;;;5074868;28;20014;-69
2024/01/18 13:22:57;;;;;;;;;;;14.80;83.90;;;;;;5074806;28;20006;-70
2024/01/18 13:25:23;;;;;;;;;;;14.70;83.80;;;;;;5074897;28;19924;-70
2024/01/18 13:27:48;;;;;;;;;;;14.20;83.80;;;;;;5074577;28;20134;-70
2024/01/18 13:30:14;;;;;;;;;;;13.90;84.60;;;;;;5074757;28;19928;-69
2024/01/18 13:32:39;;;;;;;;;;;13.30;85.40;;;;;;5074916;28;19928;-69
2024/01/18 13:35:05;;;;;;;;;;;12.90;87.10;;;;;;5074232;28;19950;-70
2024/01/18 13:37:30;;;;;;;;;;;12.50;85.20;;;;;;5074658;28;20291;-71
2024/01/18 13:39:56;;;;;;;;;;;12.10;86.30;;;;;;5083598;28;19924;-69
2024/01/18 13:42:22;;;;;;;;;;;11.50;87.10;;;;;;5090606;28;19924;-70
2024/01/18 13:44:47;;;;;;;;;;;10.70;88.80;;;;;;5090606;28;19924;-70
2024/01/18 13:47:13;;;;;;;;;;;10.30;90.70;;;;;;5089552;28;20350;-69
2024/01/18 13:49:39;;;;;;;;;;;9.70;90.50;;;;;;5089938;28;19924;-69
2024/01/18 13:52:05;;;;;;;;;;;9.30;91.30;;;;;;5089946;28;19928;-69
2024/01/18 13:54:31;;;;;;;;;;;8.80;92.10;;;;;;5090164;28;19931;-69
2024/01/18 13:56:56;;;;;;;;;;;8.70;92.40;;;;;;5090877;28;19925;-68
2024/01/18 13:59:22;;;;;;;;;;;8.80;93.30;;;;;;5090750;28;20376;-68
2024/01/18 14:01:48;;;;;;;;;;;7.60;94.20;;;;;;5089887;28;20715;-68
2024/01/18 14:04:13;;;;;;;;;;;7.80;94.60;;;;;;5086028;28;20364;-69
2024/01/18 14:06:39;;;;;;;;;;;7.20;95.10;;;;;;5082777;28;19928;-68
2024/01/18 14:09:07;;;;;;;;;;;7.10;95.20;;;;;;5079795;28;19979;-69
2024/01/18 14:11:33;;;;;;;;;;;7.20;95.60;;;;;;5081201;28;19937;-70
2024/01/18 14:13:58;;;;;;;;;;;6.70;96.10;;;;;;5079986;28;19943;-69
2024/01/18 14:16:24;;;;;;;;;;;6.70;96.90;;;;;;5078513;28;20039;-71